Time;durP1;ratioP1;P1;durP2;ratioP2;P2;SDS_P1;SDS_P2;PMS_P1;PMS_P2;Temp;Humidity;BMP_temperature;BMP_pressure;BME280_temperature;BME280_humidity;BME280_pressure;Samples;Min_cycle;Max_cycle;Signal;HPM_P1;HPM_P2
2023/03/22 00:00:14;;;;;;;;;;;;;;;17.33;45.90;93188.16;5022875;28;20000;-90
2023/03/22 00:02:39;;;;;;;;;;;;;;;17.34;45.86;93192.38;5003327;28;19995;-89
2023/03/22 00:05:05;;;;;;;;;;;;;;;17.34;45.71;93186.94;4986430;28;20376;-89
2023/03/22 00:07:30;;;;;;;;;;;;;;;17.33;45.52;93191.66;5004896;28;19921;-89
2023/03/22 00:09:55;;;;;;;;;;;;;;;17.31;46.04;93194.16;5023234;28;19948;-90
2023/03/22 00:12:20;;;;;;;;;;;;;;;17.30;45.71;93198.16;5007301;28;19957;-92
2023/03/22 00:14:47;;;;;;;;;;;;;;;17.30;45.60;93200.88;5021488;28;19921;-88
2023/03/22 00:17:12;;;;;;;;;;;;;;;17.30;45.49;93200.88;4986262;28;19930;-91
2023/03/22 00:19:40;;;;;;;;;;;;;;;17.30;46.10;93197.41;5020478;28;19925;-89
2023/03/22 00:22:07;;;;;;;;;;;;;;;17.30;45.75;93200.13;5014803;28;19930;-90
2023/03/22 00:24:32;;;;;;;;;;;;;;;17.30;46.03;93198.16;5022952;28;19925;-88
2023/03/22 00:26:57;;;;;;;;;;;;;;;17.30;45.87;93197.41;5019597;28;19933;-87
2023/03/22 00:29:23;;;;;;;;;;;;;;;17.29;45.77;93187.72;5047834;28;20017;-90
2023/03/22 00:31:48;;;;;;;;;;;;;;;17.27;45.67;93187.50;5007479;28;19929;-91
2023/03/22 00:34:14;;;;;;;;;;;;;;;17.26;45.63;93184.03;4988974;28;20067;-89
2023/03/22 00:36:39;;;;;;;;;;;;;;;17.27;45.67;93184.75;5006334;28;19940;-89
2023/03/22 00:39:04;;;;;;;;;;;;;;;17.26;45.88;93181.28;5019036;28;20504;-90
2023/03/22 00:41:30;;;;;;;;;;;;;;;17.26;46.13;93180.53;5001140;28;19964;-89
2023/03/22 00:43:55;;;;;;;;;;;;;;;17.26;45.66;93175.81;4990258;28;19921;-88
2023/03/22 00:46:20;;;;;;;;;;;;;;;17.28;45.83;93186.25;4988901;28;19929;-90
2023/03/22 00:48:45;;;;;;;;;;;;;;;17.29;45.83;93183.00;4996744;28;19960;-89
2023/03/22 00:51:11;;;;;;;;;;;;;;;17.29;45.65;93166.63;4996383;28;19933;-90
2023/03/22 00:53:37;;;;;;;;;;;;;;;17.31;45.94;93182.50;4971099;28;19926;-88
2023/03/22 00:56:04;;;;;;;;;;;;;;;17.30;45.81;93179.03;4981002;28;20357;-89
2023/03/22 00:58:29;;;;;;;;;;;;;;;17.30;46.07;93168.09;4989994;28;19952;-90
2023/03/22 01:00:54;;;;;;;;;;;;;;;17.30;45.78;93170.84;4993107;28;20296;-90
2023/03/22 01:03:20;;;;;;;;;;;;;;;17.30;45.97;93167.34;5005509;28;20413;-88
2023/03/22 01:05:48;;;;;;;;;;;;;;;17.28;46.09;93176.06;4998171;28;19936;-89
2023/03/22 01:08:13;;;;;;;;;;;;;;;17.29;45.96;93176.81;5016224;28;19926;-88
2023/03/22 01:10:39;;;;;;;;;;;;;;;17.29;46.10;93180.28;5018614;28;20389;-90
2023/03/22 01:13:04;;;;;;;;;;;;;;;17.28;46.04;93181.53;5026546;28;19928;-89
2023/03/22 01:15:29;;;;;;;;;;;;;;;17.27;46.06;93184.75;5019266;28;20020;-89
2023/03/22 01:17:55;;;;;;;;;;;;;;;17.27;45.78;93180.03;5019346;28;20321;-88
2023/03/22 01:20:20;;;;;;;;;;;;;;;17.25;45.88;93179.81;5002521;28;19929;-88
2023/03/22 01:22:45;;;;;;;;;;;;;;;17.25;45.72;93174.34;5007620;28;19917;-89
2023/03/22 01:25:11;;;;;;;;;;;;;;;17.25;45.97;93177.06;5019905;28;20612;-90
2023/03/22 01:27:36;;;;;;;;;;;;;;;17.24;46.04;93175.59;4989802;28;19932;-88
2023/03/22 01:30:01;;;;;;;;;;;;;;;17.25;45.90;93159.94;5002586;28;19929;-90
2023/03/22 01:32:26;;;;;;;;;;;;;;;17.23;46.05;93160.44;5020991;28;19936;-89
2023/03/22 01:34:52;;;;;;;;;;;;;;;17.24;45.86;93156.47;5005729;28;19926;-88
2023/03/22 01:37:17;;;;;;;;;;;;;;;17.27;45.70;93168.38;5013733;28;19930;-88
2023/03/22 01:39:44;;;;;;;;;;;;;;;17.24;46.20;93159.19;5022114;28;19969;-89
2023/03/22 01:42:13;;;;;;;;;;;;;;;17.24;45.83;93153.00;5018303;28;19951;-88
2023/03/22 01:44:39;;;;;;;;;;;;;;;17.26;45.72;93150.50;5039905;28;19922;-90
2023/03/22 01:47:07;;;;;;;;;;;;;;;17.24;45.73;93145.53;5025610;28;20005;-89
2023/03/22 01:49:32;;;;;;;;;;;;;;;17.25;45.77;93149.75;5018581;28;20407;-89
2023/03/22 01:51:59;;;;;;;;;;;;;;;17.25;45.94;93132.63;5013605;28;19957;-89
2023/03/22 01:54:34;;;;;;;;;;;;;;;17.23;45.89;93141.31;4992744;28;19921;-89
2023/03/22 01:57:00;;;;;;;;;;;;;;;17.23;45.65;93132.41;5025543;28;19930;-89
2023/03/22 01:59:25;;;;;;;;;;;;;;;17.24;45.81;93129.16;5042232;28;19926;-90
2023/03/22 02:01:50;;;;;;;;;;;;;;;17.25;45.70;93132.63;4998221;28;19956;-89
2023/03/22 02:04:23;;;;;;;;;;;;;;;17.25;46.17;93132.63;5041600;28;19925;-89
2023/03/22 02:06:50;;;;;;;;;;;;;;;17.25;45.80;93118.97;5004995;28;20400;-89
2023/03/22 02:09:17;;;;;;;;;;;;;;;17.24;45.65;93128.41;5041277;28;19929;-88
2023/03/22 02:11:42;;;;;;;;;;;;;;;17.23;45.92;93126.94;5008695;28;19933;-91
2023/03/22 02:14:26;;;;;;;;;;;;;;;17.22;45.72;93126.19;5037732;28;19932;-89
2023/03/22 02:16:54;;;;;;;;;;;;;;;17.23;46.06;93119.47;5019421;28;19929;-89
2023/03/22 02:19:41;;;;;;;;;;;;;;;17.22;45.75;93126.19;5040835;28;19925;-90
2023/03/22 02:22:20;;;;;;;;;;;;;;;17.22;46.07;93115.25;5024462;28;19925;-89
2023/03/22 02:24:54;;;;;;;;;;;;;;;17.22;46.23;93117.25;5008830;28;19976;-88
2023/03/22 02:27:26;;;;;;;;;;;;;;;17.22;46.01;93114.53;5024432;28;20359;-89
2023/03/22 02:30:03;;;;;;;;;;;;;;;17.22;45.80;93119.97;5005111;28;19932;-90
2023/03/22 02:32:37;;;;;;;;;;;;;;;17.21;45.99;93113.78;4997155;28;19926;-89
2023/03/22 02:35:21;;;;;;;;;;;;;;;17.22;46.21;93119.97;5021344;28;20021;-89
2023/03/22 02:38:00;;;;;;;;;;;;;;;17.22;45.82;93114.53;5011584;28;20335;-89
2023/03/22 02:40:25;;;;;;;;;;;;;;;17.22;46.12;93119.97;5006165;28;19926;-88
2023/03/22 02:42:54;;;;;;;;;;;;;;;17.23;45.98;93113.28;5024328;28;20439;-89
2023/03/22 02:45:22;;;;;;;;;;;;;;;17.23;46.04;93124.19;4991920;28;19926;-89
2023/03/22 02:47:55;;;;;;;;;;;;;;;17.23;45.96;93116.75;4995789;28;20396;-91
2023/03/22 02:50:30;;;;;;;;;;;;;;;17.22;45.91;93120.72;5023654;28;20381;-90
2023/03/22 02:53:01;;;;;;;;;;;;;;;17.22;45.82;93118.00;5004730;28;19976;-90
2023/03/22 02:55:39;;;;;;;;;;;;;;;17.21;46.00;93121.97;5036562;28;19971;-89
2023/03/22 02:58:23;;;;;;;;;;;;;;;17.19;45.89;93116.28;5041056;28;19991;-88
2023/03/22 03:00:49;;;;;;;;;;;;;;;17.20;45.75;93117.03;5045713;28;19925;-89
2023/03/22 03:03:17;;;;;;;;;;;;;;;17.19;45.89;93124.47;5020018;28;19930;-90
2023/03/22 03:05:42;;;;;;;;;;;;;;;17.17;45.98;93110.59;5038611;28;19929;-91
2023/03/22 03:08:08;;;;;;;;;;;;;;;17.19;46.01;93112.81;5023843;28;19937;-89
2023/03/22 03:10:33;;;;;;;;;;;;;;;17.18;46.32;93114.78;5040786;28;19932;-88
2023/03/22 03:12:59;;;;;;;;;;;;;;;17.17;45.97;93109.84;5040892;28;19929;-90
2023/03/22 03:15:25;;;;;;;;;;;;;;;17.18;46.29;93120.25;5023475;28;19961;-89
2023/03/22 03:17:50;;;;;;;;;;;;;;;17.19;45.92;93110.06;5024264;28;19936;-89
2023/03/22 03:20:33;;;;;;;;;;;;;;;17.17;46.30;93124.25;5023531;28;20299;-88
2023/03/22 03:22:58;;;;;;;;;;;;;;;17.18;45.84;93120.25;5007434;28;19929;-89
2023/03/22 03:25:25;;;;;;;;;;;;;;;17.20;45.80;93114.28;5006350;28;20387;-88
2023/03/22 03:27:57;;;;;;;;;;;;;;;17.19;46.05;93112.81;5020826;28;19937;-87
2023/03/22 03:30:23;;;;;;;;;;;;;;;17.20;46.13;93115.03;5056171;28;19929;-90
2023/03/22 03:32:51;;;;;;;;;;;;;;;17.20;45.80;93119.75;4994195;28;20087;-89
2023/03/22 03:35:21;;;;;;;;;;;;;;;17.20;46.24;93111.56;4990649;28;19960;-89
2023/03/22 03:37:52;;;;;;;;;;;;;;;17.20;45.79;93114.28;5007291;28;19983;-89
2023/03/22 03:40:19;;;;;;;;;;;;;;;17.21;46.09;93123.97;5020058;28;19926;-88
2023/03/22 03:42:48;;;;;;;;;;;;;;;17.18;45.67;93116.78;5002215;28;19929;-92
2023/03/22 03:45:15;;;;;;;;;;;;;;;17.18;46.04;93119.50;4990411;28;19925;-90
2023/03/22 03:47:42;;;;;;;;;;;;;;;17.18;45.84;93114.78;4991051;28;20394;-90
2023/03/22 03:50:07;;;;;;;;;;;;;;;17.18;46.04;93119.50;5030741;28;20412;-89
2023/03/22 03:52:32;;;;;;;;;;;;;;;17.20;45.80;93119.75;4999872;28;20018;-90
2023/03/22 03:54:58;;;;;;;;;;;;;;;17.21;45.87;93123.97;5007146;28;20380;-88
2023/03/22 03:57:23;;;;;;;;;;;;;;;17.20;46.17;93115.03;5019678;28;20015;-92
2023/03/22 03:59:49;;;;;;;;;;;;;;;17.21;45.92;93115.78;5026953;28;20039;-88
2023/03/22 04:02:15;;;;;;;;;;;;;;;17.20;45.95;93115.03;5015512;28;19952;-90
2023/03/22 04:04:41;;;;;;;;;;;;;;;17.20;46.01;93115.03;5039714;28;20403;-88
2023/03/22 04:07:06;;;;;;;;;;;;;;;17.21;45.81;93102.13;5038974;28;19929;-90
2023/03/22 04:09:32;;;;;;;;;;;;;;;17.21;45.88;93107.56;5039874;28;19932;-88
2023/03/22 04:11:57;;;;;;;;;;;;;;;17.19;46.12;93104.59;5022382;28;19922;-89
2023/03/22 04:14:22;;;;;;;;;;;;;;;17.20;45.77;93104.09;5021926;28;19936;-89
2023/03/22 04:16:48;;;;;;;;;;;;;;;17.19;45.95;93099.88;5006236;28;19921;-89
2023/03/22 04:19:13;;;;;;;;;;;;;;;17.21;46.20;93110.31;5022353;28;19932;-88
2023/03/22 04:21:38;;;;;;;;;;;;;;;17.19;46.11;93110.81;5022493;28;19925;-88
2023/03/22 04:24:04;;;;;;;;;;;;;;;17.18;46.14;93117.53;5039097;28;19929;-87
2023/03/22 04:26:29;;;;;;;;;;;;;;;17.17;45.72;93112.56;5021210;28;19937;-88
2023/03/22 04:28:55;;;;;;;;;;;;;;;17.15;46.25;93102.16;5024376;28;19926;-88
2023/03/22 04:31:20;;;;;;;;;;;;;;;17.16;45.84;93111.09;5005825;28;20004;-89
2023/03/22 04:33:46;;;;;;;;;;;;;;;17.14;45.94;93106.88;5023095;28;19952;-89
2023/03/22 04:36:17;;;;;;;;;;;;;;;17.15;46.26;93110.34;5022340;28;19935;-89
2023/03/22 04:38:42;;;;;;;;;;;;;;;17.16;46.06;93117.28;5017510;28;19933;-90
2023/03/22 04:41:08;;;;;;;;;;;;;;;17.17;45.77;93104.38;5006408;28;19929;-88
2023/03/22 04:43:34;;;;;;;;;;;;;;;17.15;45.93;93115.81;5005011;28;19925;-89
2023/03/22 04:46:05;;;;;;;;;;;;;;;17.13;46.19;93118.31;5044246;28;20004;-88
2023/03/22 04:48:31;;;;;;;;;;;;;;;17.11;46.31;93118.06;5009467;28;19925;-88
2023/03/22 04:50:56;;;;;;;;;;;;;;;17.10;46.47;93124.81;5033010;28;19980;-90
2023/03/22 04:53:26;;;;;;;;;;;;;;;17.10;46.60;93122.78;5029267;28;20360;-88
2023/03/22 04:55:52;;;;;;;;;;;;;;;17.09;46.27;93128.78;5011184;28;19933;-90
2023/03/22 04:58:20;;;;;;;;;;;;;;;17.09;46.46;93129.53;5031645;28;19925;-87
2023/03/22 05:00:46;;;;;;;;;;;;;;;17.09;46.59;93132.25;4998884;28;19949;-86
2023/03/22 05:03:12;;;;;;;;;;;;;;;17.09;46.41;93131.53;5021627;28;20145;-87
2023/03/22 05:05:38;;;;;;;;;;;;;;;17.08;45.68;93141.72;5028668;28;20421;-86
2023/03/22 05:08:05;;;;;;;;;;;;;;;16.95;45.19;93132.59;5024303;28;19922;-87
2023/03/22 05:10:30;;;;;;;;;;;;;;;16.87;45.62;93132.44;5006269;28;19930;-91
2023/03/22 05:12:56;;;;;;;;;;;;;;;16.78;45.42;93130.00;5036983;28;19980;-88
2023/03/22 05:15:21;;;;;;;;;;;;;;;16.73;45.16;93134.25;5037880;28;19937;-89
2023/03/22 05:17:46;;;;;;;;;;;;;;;16.77;45.45;93128.53;5030917;28;19984;-88
2023/03/22 05:20:12;;;;;;;;;;;;;;;16.81;45.53;93122.78;5022897;28;20490;-88
2023/03/22 05:22:39;;;;;;;;;;;;;;;16.84;45.36;93127.25;5012870;28;19926;-89
2023/03/22 05:25:05;;;;;;;;;;;;;;;16.86;45.31;93119.28;5043040;28;19925;-89
2023/03/22 05:27:33;;;;;;;;;;;;;;;16.88;45.15;93128.44;5027630;28;19930;-90
2023/03/22 05:29:58;;;;;;;;;;;;;;;16.92;45.20;93123.44;5012042;28;19925;-87
2023/03/22 05:32:24;;;;;;;;;;;;;;;16.94;45.55;93134.59;5023267;28;20347;-88
2023/03/22 05:34:49;;;;;;;;;;;;;;;17.00;45.65;93120.91;5043268;28;20311;-89
2023/03/22 05:37:16;;;;;;;;;;;;;;;17.05;45.50;93131.78;5036282;28;20016;-90
2023/03/22 05:39:41;;;;;;;;;;;;;;;17.09;45.64;93136.97;5010129;28;19937;-90
2023/03/22 05:42:06;;;;;;;;;;;;;;;17.14;45.46;93136.19;4998886;28;19922;-91
2023/03/22 05:44:32;;;;;;;;;;;;;;;17.15;45.90;93137.66;5022247;28;19932;-91
2023/03/22 05:46:57;;;;;;;;;;;;;;;17.19;45.88;93140.13;5019801;28;19937;-88
2023/03/22 05:49:22;;;;;;;;;;;;;;;17.18;45.82;93131.19;5012827;28;19940;-90
2023/03/22 05:51:49;;;;;;;;;;;;;;;17.15;45.73;93126.72;5023518;28;19926;-90
2023/03/22 05:54:14;;;;;;;;;;;;;;;17.06;45.38;93127.06;5010561;28;19936;-89
2023/03/22 05:56:40;;;;;;;;;;;;;;;16.94;45.17;93129.13;5025397;28;19929;-86
2023/03/22 05:59:05;;;;;;;;;;;;;;;16.85;45.45;93131.44;5050491;28;19931;-91
2023/03/22 06:01:32;;;;;;;;;;;;;;;16.78;45.40;93125.28;5014450;28;19932;-90
2023/03/22 06:04:00;;;;;;;;;;;;;;;16.75;45.16;93131.75;5017256;28;20351;-92
2023/03/22 06:06:26;;;;;;;;;;;;;;;16.74;45.40;93134.97;5046433;22;19916;-90
2023/03/22 06:08:53;;;;;;;;;;;;;;;16.72;45.41;93129.28;5034685;28;19936;-90
2023/03/22 06:11:21;;;;;;;;;;;;;;;16.70;45.52;93132.53;5017704;28;19925;-93
2023/03/22 06:13:47;;;;;;;;;;;;;;;16.65;46.07;93127.13;5031171;28;19925;-91
2023/03/22 06:16:12;;;;;;;;;;;;;;;16.68;45.78;93139.72;5011453;28;20040;-89
2023/03/22 06:18:37;;;;;;;;;;;;;;;16.63;45.81;93149.47;5032060;28;19930;-92
2023/03/22 06:21:03;;;;;;;;;;;;;;;16.58;46.09;93139.28;4992019;28;19926;-92
2023/03/22 06:23:55;;;;;;;;;;;;;;;16.57;46.39;93140.53;4993795;28;19973;-92
2023/03/22 06:26:22;;;;;;;;;;;;;;;16.53;46.60;93142.03;4991534;28;19926;-88
2023/03/22 06:28:48;;;;;;;;;;;;;;;16.50;46.74;93146.50;4976050;28;20274;-91
2023/03/22 06:31:13;;;;;;;;;;;;;;;16.48;47.00;93148.25;4996395;28;19972;-89
2023/03/22 06:33:39;;;;;;;;;;;;;;;16.46;47.27;93144.03;4997605;28;20484;-90
2023/03/22 06:36:04;;;;;;;;;;;;;;;16.46;47.50;93138.59;4975069;28;19961;-91
2023/03/22 06:38:30;;;;;;;;;;;;;;;16.49;47.73;93144.28;4972948;28;19934;-89
2023/03/22 06:40:55;;;;;;;;;;;;;;;16.52;47.29;93146.75;4964543;28;20008;-89
2023/03/22 06:43:20;;;;;;;;;;;;;;;16.60;47.51;93155.91;4969925;28;19925;-89
2023/03/22 06:45:53;;;;;;;;;;;;;;;16.66;47.21;93150.44;4982321;28;20017;-92
2023/03/22 06:48:27;;;;;;;;;;;;;;;16.73;47.14;93153.34;4997552;28;19934;-90
2023/03/22 06:50:52;;;;;;;;;;;;;;;16.78;46.85;93154.56;5015074;28;19922;-88
2023/03/22 06:53:19;;;;;;;;;;;;;;;16.84;46.88;93158.00;4992166;28;20388;-90
2023/03/22 06:55:44;;;;;;;;;;;;;;;16.90;47.00;93161.44;4988064;28;19925;-89
2023/03/22 06:58:10;;;;;;;;;;;;;;;16.92;46.57;93160.91;4987922;28;20346;-90
2023/03/22 07:00:37;;;;;;;;;;;;;;;16.99;46.90;93154.91;4966610;28;19987;-91
2023/03/22 07:03:02;;;;;;;;;;;;;;;17.02;46.95;93156.63;4963614;28;19926;-87
2023/03/22 07:05:28;;;;;;;;;;;;;;;17.07;46.74;93161.31;4993497;28;20446;-90
2023/03/22 07:07:53;;;;;;;;;;;;;;;17.11;46.26;93157.06;5029913;28;19929;-91
2023/03/22 07:10:18;;;;;;;;;;;;;;;17.14;46.56;93158.78;4997972;28;19929;-92
2023/03/22 07:12:44;;;;;;;;;;;;;;;17.19;46.27;93154.53;4994190;28;19994;-87
2023/03/22 07:15:10;;;;;;;;;;;;;;;17.22;45.95;93147.28;5012458;28;19929;-87
2023/03/22 07:17:36;;;;;;;;;;;;;;;17.24;45.81;93145.53;5013229;28;19922;-90
2023/03/22 07:20:02;;;;;;;;;;;;;;;17.27;45.86;93144.53;5012420;28;19932;-94
2023/03/22 07:22:29;;;;;;;;;;;;;;;17.30;45.74;93140.03;5017627;28;19929;-91
2023/03/22 07:24:55;;;;;;;;;;;;;;;17.30;46.20;93142.78;4993833;28;19921;-91
2023/03/22 07:27:21;;;;;;;;;;;;;;;17.31;46.04;93142.25;5002163;28;19925;-88
2023/03/22 07:29:46;;;;;;;;;;;;;;;17.33;45.68;93147.19;5017921;28;19926;-90
2023/03/22 07:32:13;;;;;;;;;;;;;;;17.30;45.75;93143.50;5013041;28;19992;-89
2023/03/22 07:34:38;;;;;;;;;;;;;;;17.28;45.59;93140.53;5025086;28;20384;-90
2023/03/22 07:37:05;;;;;;;;;;;;;;;17.22;45.33;93152.75;5009352;28;19932;-92
2023/03/22 07:39:30;;;;;;;;;;;;;;;17.21;45.83;93141.09;5018033;28;19925;-90
2023/03/22 07:41:55;;;;;;;;;;;;;;;17.18;45.62;93150.31;5028957;28;20593;-90
2023/03/22 07:44:24;;;;;;;;;;;;;;;17.15;45.60;93143.13;5014054;28;19926;-89
2023/03/22 07:46:51;;;;;;;;;;;;;;;17.14;45.52;93144.38;5002223;28;19932;-90
2023/03/22 07:49:16;;;;;;;;;;;;;;;17.13;45.71;93143.63;5037319;28;19929;-90
2023/03/22 07:51:41;;;;;;;;;;;;;;;17.14;45.87;93141.63;5023598;28;19967;-89
2023/03/22 07:54:06;;;;;;;;;;;;;;;17.14;45.73;93144.38;5008992;28;19964;-92
2023/03/22 07:56:33;;;;;;;;;;;;;;;17.13;45.63;93148.34;5024452;28;19957;-91
2023/03/22 07:58:58;;;;;;;;;;;;;;;17.12;45.52;93144.88;5000743;28;19925;-89
2023/03/22 08:01:24;;;;;;;;;;;;;;;17.11;45.47;93154.31;5002091;28;19925;-90
2023/03/22 08:03:49;;;;;;;;;;;;;;;17.13;45.95;93162.00;4998606;28;19972;-93
2023/03/22 08:06:15;;;;;;;;;;;;;;;17.13;45.79;93149.09;4995528;28;20282;-90
2023/03/22 08:08:40;;;;;;;;;;;;;;;17.13;45.75;93156.53;5004465;28;19959;-92
2023/03/22 08:11:06;;;;;;;;;;;;;;;17.13;45.46;93153.81;5008968;28;19932;-88
2023/03/22 08:13:31;;;;;;;;;;;;;;;17.12;45.31;93152.31;4990702;28;19968;-85
2023/03/22 08:16:05;;;;;;;;;;;;;;;17.13;45.27;93156.53;4991554;28;19952;-90
2023/03/22 08:18:30;;;;;;;;;;;;;;;17.13;45.72;93143.63;5025658;28;20043;-89
2023/03/22 08:20:56;;;;;;;;;;;;;;;17.17;45.70;93148.09;5033983;28;19936;-91
2023/03/22 08:23:22;;;;;;;;;;;;;;;17.19;45.63;93145.59;5017658;28;19929;-92
2023/03/22 08:25:47;;;;;;;;;;;;;;;17.25;45.98;93144.28;5016072;28;19936;-91
2023/03/22 08:28:14;;;;;;;;;;;;;;;17.30;45.35;93150.97;5012179;28;19976;-91
2023/03/22 08:30:40;;;;;;;;;;;;;;;17.33;45.90;93156.13;5024880;28;19933;-93
2023/03/22 08:33:05;;;;;;;;;;;;;;;17.36;45.31;93154.38;5028027;28;19928;-90
2023/03/22 08:35:31;;;;;;;;;;;;;;;17.38;45.33;93155.34;4999136;28;20423;-89
2023/03/22 08:37:56;;;;;;;;;;;;;;;17.40;45.38;93154.84;5011403;28;20033;-90
2023/03/22 08:40:22;;;;;;;;;;;;;;;17.42;45.35;93155.06;4994166;28;19933;-89
2023/03/22 08:42:49;;;;;;;;;;;;;;;17.44;45.49;93147.84;5007225;28;19929;-91
2023/03/22 08:45:15;;;;;;;;;;;;;;;17.46;45.41;93155.53;5003753;28;20361;-88
2023/03/22 08:47:40;;;;;;;;;;;;;;;17.47;45.21;93159.75;4988399;28;19960;-87
2023/03/22 08:50:08;;;;;;;;;;;;;;;17.48;45.41;93153.78;5000570;28;20957;-90
2023/03/22 08:52:33;;;;;;;;;;;;;;;17.48;45.08;93156.50;5013920;28;19925;-89
2023/03/22 08:54:58;;;;;;;;;;;;;;;17.49;45.31;93154.53;5019407;28;19926;-92
2023/03/22 08:57:26;;;;;;;;;;;;;;;17.51;45.24;93152.03;5008371;28;19925;-89
2023/03/22 08:59:53;;;;;;;;;;;;;;;17.49;45.63;93146.31;5010781;28;20388;-89
2023/03/22 09:02:18;;;;;;;;;;;;;;;17.50;45.24;93144.34;5010472;28;19925;-89
2023/03/22 09:04:44;;;;;;;;;;;;;;;17.50;45.54;93149.78;5001312;28;19936;-90
2023/03/22 09:07:09;;;;;;;;;;;;;;;17.48;45.78;93151.03;4997007;28;19929;-90
2023/03/22 09:09:34;;;;;;;;;;;;;;;17.50;45.78;93150.53;5010077;28;19948;-90
2023/03/22 09:11:59;;;;;;;;;;;;;;;17.52;45.24;93153.50;5016884;28;19940;-88
2023/03/22 09:14:25;;;;;;;;;;;;;;;17.54;45.67;93155.72;4996575;28;20303;-89
2023/03/22 09:16:51;;;;;;;;;;;;;;;17.55;45.29;93154.44;4999798;28;20012;-87
2023/03/22 09:19:16;;;;;;;;;;;;;;;17.57;45.56;93151.94;5029397;28;19971;-89
2023/03/22 09:21:41;;;;;;;;;;;;;;;17.59;45.32;93158.38;5016351;28;19934;-88
2023/03/22 09:24:08;;;;;;;;;;;;;;;17.59;45.13;93154.91;4977487;28;19926;-91
2023/03/22 09:26:33;;;;;;;;;;;;;;;17.60;45.11;93151.66;5009072;28;19976;-90
2023/03/22 09:28:58;;;;;;;;;;;;;;;17.61;45.46;93153.16;4993249;28;19925;-90
2023/03/22 09:31:23;;;;;;;;;;;;;;;17.60;45.14;93146.22;5014693;28;19932;-93
2023/03/22 09:33:49;;;;;;;;;;;;;;;17.56;45.53;93145.00;5011596;28;19984;-93
2023/03/22 09:36:18;;;;;;;;;;;;;;;17.52;45.56;93141.84;5011320;28;20033;-95
2023/03/22 09:38:44;;;;;;;;;;;;;;;17.49;45.10;93135.38;5010131;28;20278;-92
2023/03/22 09:41:23;;;;;;;;;;;;;;;17.48;44.95;93139.38;5012505;23;19926;-90
2023/03/22 09:43:51;;;;;;;;;;;;;;;17.48;45.26;93136.63;5026119;28;19948;-92
2023/03/22 09:46:19;;;;;;;;;;;;;;;17.49;45.32;93135.38;4997989;28;19939;-90
2023/03/22 09:48:45;;;;;;;;;;;;;;;17.50;45.50;93128.69;5019924;28;19930;-93
2023/03/22 09:51:28;;;;;;;;;;;;;;;17.52;44.99;93133.63;5011789;28;20071;-88
2023/03/22 09:53:53;;;;;;;;;;;;;;;17.53;45.53;93133.13;5001434;28;19937;-88
2023/03/22 09:56:28;;;;;;;;;;;;;;;17.55;45.36;93129.84;5017454;28;19926;-91
2023/03/22 09:58:55;;;;;;;;;;;;;;;17.57;45.39;93122.63;5009050;28;20319;-89
2023/03/22 10:01:27;;;;;;;;;;;;;;;17.57;45.40;93121.88;4989341;28;20737;-93
2023/03/22 10:04:00;;;;;;;;;;;;;;;17.61;45.61;93127.81;4996619;28;19987;-92
2023/03/22 10:06:26;;;;;;;;;;;;;;;17.61;45.37;93116.88;5031003;28;19972;-90
2023/03/22 10:08:57;;;;;;;;;;;;;;;17.62;45.37;93118.38;5021643;28;19929;-89
2023/03/22 10:11:42;;;;;;;;;;;;;;;17.62;45.41;93121.84;5011393;28;20015;-90
2023/03/22 10:14:14;;;;;;;;;;;;;;;17.64;45.61;93124.06;5030439;28;20000;-88
2023/03/22 10:16:39;;;;;;;;;;;;;;;17.65;45.27;93117.38;5021992;28;19991;-89
2023/03/22 10:19:19;;;;;;;;;;;;;;;17.63;45.22;93117.09;5011311;28;19933;-91
2023/03/22 10:21:45;;;;;;;;;;;;;;;17.65;45.47;93120.84;5020429;28;20618;-91
2023/03/22 10:24:14;;;;;;;;;;;;;;;17.65;45.56;93117.38;5019307;28;19933;-92
2023/03/22 10:26:39;;;;;;;;;;;;;;;17.63;45.44;93101.44;5013901;28;19929;-92
2023/03/22 10:29:14;;;;;;;;;;;;;;;17.65;45.31;93114.63;5011867;28;19936;-91
2023/03/22 10:31:41;;;;;;;;;;;;;;;17.65;44.85;93107.19;4998815;28;19921;-89
2023/03/22 10:34:07;;;;;;;;;;;;;;;17.65;45.25;93107.19;5032075;28;20032;-90
2023/03/22 10:36:33;;;;;;;;;;;;;;;17.65;45.57;93109.91;5040880;28;19968;-89
2023/03/22 10:39:04;;;;;;;;;;;;;;;17.67;45.23;93109.41;5014828;28;19925;-92
2023/03/22 10:41:29;;;;;;;;;;;;;;;17.68;45.41;93106.16;5018396;28;19965;-88
2023/03/22 10:43:55;;;;;;;;;;;;;;;17.70;45.50;93116.56;5033569;28;19925;-90
2023/03/22 10:46:21;;;;;;;;;;;;;;;17.68;45.43;93100.69;5024915;28;19926;-87
2023/03/22 10:48:47;;;;;;;;;;;;;;;17.67;45.32;93109.41;5025791;28;20457;-90
2023/03/22 10:51:19;;;;;;;;;;;;;;;17.64;45.00;93110.38;5026038;28;19929;-89
2023/03/22 10:53:45;;;;;;;;;;;;;;;17.61;44.14;93103.22;5013863;28;19925;-92
2023/03/22 10:56:11;;;;;;;;;;;;;;;17.58;44.46;93106.97;5030296;28;19952;-89
2023/03/22 10:58:36;;;;;;;;;;;;;;;17.56;44.17;93104.75;5006244;28;20439;-90
2023/03/22 11:01:09;;;;;;;;;;;;;;;17.55;43.81;93100.53;5012959;28;19930;-92
2023/03/22 11:03:36;;;;;;;;;;;;;;;17.55;43.90;93108.00;5025190;28;19960;-92
2023/03/22 11:06:07;;;;;;;;;;;;;;;17.55;43.45;93108.72;5013877;28;20000;-91
2023/03/22 11:08:39;;;;;;;;;;;;;;;17.57;43.76;93102.75;5019156;28;19964;-91
2023/03/22 11:11:06;;;;;;;;;;;;;;;17.59;44.14;93103.72;5041258;28;19928;-91
2023/03/22 11:13:34;;;;;;;;;;;;;;;17.60;44.04;93105.22;5030528;28;20066;-93
2023/03/22 11:16:05;;;;;;;;;;;;;;;17.61;44.40;93101.22;5030473;28;20395;-93
2023/03/22 11:18:31;;;;;;;;;;;;;;;17.61;44.33;93098.50;4980685;28;19922;-93
2023/03/22 11:21:06;;;;;;;;;;;;;;;17.64;44.16;93094.00;4993537;28;19924;-94
2023/03/22 11:23:32;;;;;;;;;;;;;;;17.63;44.45;93093.25;4930668;29;19927;-93
2023/03/22 11:25:59;;;;;;;;;;;;;;;17.64;44.45;93092.03;4948681;28;19988;-93
2023/03/22 11:28:28;;;;;;;;;;;;;;;17.65;44.69;93090.78;4980921;28;19923;-93
2023/03/22 11:30:59;;;;;;;;;;;;;;;17.65;44.28;93090.78;4963220;28;20294;-92
2023/03/22 11:33:25;;;;;;;;;;;;;;;17.65;44.63;93082.56;4943288;28;19926;-92
2023/03/22 11:36:34;;;;;;;;;;;;;;;17.67;44.40;93082.06;4925899;28;19930;-92
2023/03/22 11:39:26;;;;;;;;;;;;;;;17.67;44.61;93076.59;4969585;28;20456;-93
2023/03/22 11:42:03;;;;;;;;;;;;;;;17.67;44.77;93066.41;4904072;28;19934;-93
2023/03/22 11:44:34;;;;;;;;;;;;;;;17.69;44.90;93065.88;4940574;28;19974;-93
2023/03/22 11:47:03;;;;;;;;;;;;;;;17.70;45.18;93068.09;4934489;28;19927;-93
2023/03/22 11:49:55;;;;;;;;;;;;;;;17.70;45.14;93061.91;4926807;29;19907;-91
2023/03/22 11:52:52;;;;;;;;;;;;;;;17.69;44.73;93065.88;4934233;28;20232;-92
2023/03/22 11:55:26;;;;;;;;;;;;;;;17.68;45.17;93056.94;4947779;28;19926;-92
2023/03/22 11:58:12;;;;;;;;;;;;;;;17.66;45.77;93056.72;4974044;28;20192;-94
2023/03/22 12:00:51;;;;;;;;;;;;;;;17.67;44.71;93052.00;4957875;28;19992;-93
2023/03/22 12:03:25;;;;;;;;;;;;;;;17.67;44.82;93047.25;4998892;28;20029;-94
2023/03/22 12:05:55;;;;;;;;;;;;;;;17.66;44.65;93048.53;4965693;28;19942;-93
2023/03/22 12:08:59;;;;;;;;;;;;;;;17.65;45.02;93047.03;4970988;28;20034;-89
2023/03/22 12:11:38;;;;;;;;;;;;;;;17.65;44.12;93044.31;4931529;29;19964;-89
2023/03/22 12:14:22;;;;;;;;;;;;;;;17.63;43.28;93043.31;4918992;29;20561;-90
2023/03/22 12:17:06;;;;;;;;;;;;;;;17.62;43.96;93048.03;4897163;29;19935;-92
2023/03/22 12:19:38;;;;;;;;;;;;;;;17.61;43.66;93035.63;4935141;29;19942;-89
2023/03/22 12:22:08;;;;;;;;;;;;;;;17.61;43.68;93032.16;4944045;28;19938;-90
2023/03/22 12:24:33;;;;;;;;;;;;;;;17.61;43.83;93034.88;4952376;28;19973;-90
2023/03/22 12:26:59;;;;;;;;;;;;;;;17.62;43.74;93042.56;4932184;29;19926;-90
2023/03/22 12:29:25;;;;;;;;;;;;;;;17.61;43.17;93038.34;4923101;29;20310;-90
2023/03/22 12:31:54;;;;;;;;;;;;;;;17.61;42.97;93034.88;4941627;28;19927;-88
2023/03/22 12:34:20;;;;;;;;;;;;;;;17.61;42.67;93032.16;4911125;28;20373;-91
2023/03/22 12:36:48;;;;;;;;;;;;;;;17.62;42.82;93031.63;4972012;28;20024;-89
2023/03/22 12:39:23;;;;;;;;;;;;;;;17.62;42.99;93031.63;4992064;28;19952;-92
2023/03/22 12:41:48;;;;;;;;;;;;;;;17.64;41.86;93031.13;5012808;28;19930;-89
2023/03/22 12:44:16;;;;;;;;;;;;;;;17.64;42.13;93031.13;5044216;28;20297;-93
2023/03/22 12:46:49;;;;;;;;;;;;;;;17.64;43.06;93026.44;5057823;28;19940;-92
2023/03/22 12:49:14;;;;;;;;;;;;;;;17.63;42.58;93026.91;5063074;28;20007;-87
2023/03/22 12:51:48;;;;;;;;;;;;;;;17.62;42.33;93030.91;5051880;28;19999;-92